weather station
Area: 7197 km2
The highest point: Čupec (819 m.s.l.)
Total stations: 36
Stations online: 33
Stations offline: 3
Current weather
16°C

Meteorological map - weather stations in Jihomoravský

. The meteorological maps show weather information from WARIO weather stations

Weather stations Jihomoravský

 UpdatesNameStatusTemperatureHumidityWind speedWind direction
28.5.2022 15:45Olešnice12.5 °C60.7 %3.4 m/s SE
28.5.2022 15:45Archlebov15.8 °C44.5 %3.4 m/s N
24.5.2022 14:47Boskovice17.8 °C78.1 %0.9 m/s S
28.5.2022 15:45Brno - Královo Pole15.0 °C45.0 %5.1 m/s SW
28.5.2022 15:45Brno-Líšeň16.0 °C40.2 %2.9 m/s S
28.5.2022 15:45Brno - Vinohrady15.2 °C43.6 %2.9 m/s N
28.5.2022 15:45Brno-Kníničky18.1 °C42.3 %0.0 m/s NW
28.5.2022 15:45Bzenec16.3 °C38.7 %2.8 m/s E
28.5.2022 15:45Nížkovice17.1 °C34.0 %1.8 m/s NW
28.5.2022 15:45Holubice15.2 °C49.7 %0.7 m/s NW
28.5.2022 15:45Moravany16.2 °C48.9 %0.0 m/s NW
28.5.2022 15:45Lesní Hluboké 17.2 °C47.2 %1.4 m/s SE
28.5.2022 15:44Vranov13.9 °C58.3 %1.6 m/s NE
28.5.2022 15:45Brno - Lesná15.6 °C42.0 %2.2 m/s SW
28.5.2022 15:45Dolní Dubňany14.7 °C45.0 %4.1 m/s SE
12.5.2022 07:35Svatobořice17.1 °C71.3 %0.0 m/s W
28.5.2022 15:45Mikulov18.5 °C36.8 %2.8 m/s NW
28.5.2022 15:45Moravské Bránice16.8 °C45.1 %3.4 m/s N
28.5.2022 15:45Mutěnice15.8 °C43.4 %2.7 m/s NW
28.5.2022 15:45Nebovidy14.9 °C46.8 %3.6 m/s SE
28.5.2022 15:45Kravsko15.6 °C39.0 %1.5 m/s SE
28.5.2022 15:45Pohořelice16.0 °C42.8 %3.1 m/s SE
28.5.2022 15:45Pozořice15.5 °C48.5 %1.7 m/s NW
28.5.2022 15:45Předklášteří14.9 °C100.0 %2.7 m/s S
28.5.2022 15:45Brno - Přízřenice16.5 °C40.7 %3.8 m/s SE
28.5.2022 15:45Šlapanice17.0 °C45.4 %1.4 m/s W
28.5.2022 15:45Strážnice GUMEX15.8 °C44.5 %3.9 m/s E
28.5.2022 15:45Troubsko °C %0.0 m/s N
28.5.2022 15:45Veselí nad Moravou16.0 °C50.2 %5.7 m/s N
28.5.2022 15:45Veselí nad Moravou17.9 °C39.6 %1.4 m/s N
28.5.2022 15:45Kněževes Veselka9.3 °C68.0 %4.6 m/s NW
28.5.2022 15:45Višňové18.5 °C34.2 %0.0 m/s W
28.5.2022 15:45Vlasatice16.2 °C38.8 %4.7 m/s S
28.5.2022 15:45Vrbovec19.9 °C37.7 %1.4 m/s NE
28.5.2022 15:45Rájec-Jestřebí14.0 °C61.7 %1.8 m/s N
27.5.2022 09:54Žarošice19.9 °C56.1 %2.5 m/s SE
Email notifications
Enter your email address to subscribe to notifications about news at warioweather.com. Your email address will not be used for any purpose other than sending these emails and will not be provided to any third party. The subscription can be ended at any time.
All data are only indicative. The portal administrator has no responsibility for potentially incorrect data and related consequences. Publishing or further sharing of content from www.warioweather.com is only allowed with written consent from WANET s.r.o.